createdAt,value
2018-08-20T00:02:26.530Z,6.53
2018-08-20T00:04:54.580Z,6.70
2018-08-20T00:07:22.379Z,5.67
2018-08-20T00:09:50.395Z,5.77
2018-08-20T00:12:18.784Z,5.40
2018-08-20T00:14:47.414Z,5.50
2018-08-20T00:17:15.512Z,7.10
2018-08-20T00:19:43.503Z,5.73
2018-08-20T00:22:11.706Z,6.07
2018-08-20T00:24:39.605Z,5.50
2018-08-20T00:27:07.518Z,6.43
2018-08-20T00:29:38.598Z,6.17
2018-08-20T00:32:06.580Z,5.70
2018-08-20T00:34:34.246Z,6.13
2018-08-20T00:37:01.887Z,8.43
2018-08-20T00:39:29.739Z,6.27
2018-08-20T00:41:57.430Z,6.57
2018-08-20T00:44:25.225Z,6.10
2018-08-20T00:46:52.909Z,6.07
2018-08-20T00:49:20.523Z,6.90
2018-08-20T00:51:48.173Z,6.90
2018-08-20T00:54:16.239Z,6.63
2018-08-20T00:56:43.962Z,5.87
2018-08-20T00:59:11.764Z,5.43
2018-08-20T01:01:39.503Z,8.80
2018-08-20T01:04:07.518Z,5.57
2018-08-20T01:06:35.155Z,6.67
2018-08-20T01:09:04.138Z,5.57
2018-08-20T01:11:31.909Z,5.00
2018-08-20T01:13:59.584Z,5.83
2018-08-20T01:16:27.234Z,6.47
2018-08-20T01:18:54.872Z,6.77
2018-08-20T01:21:22.529Z,5.60
2018-08-20T01:23:50.268Z,6.20
2018-08-20T01:26:19.161Z,7.10
2018-08-20T01:28:46.818Z,5.30
2018-08-20T01:31:15.163Z,5.97
2018-08-20T01:33:42.967Z,6.00
2018-08-20T01:36:12.390Z,6.70
2018-08-20T01:38:40.069Z,6.93
2018-08-20T01:41:07.750Z,6.73
2018-08-20T01:43:35.604Z,6.37
2018-08-20T01:46:03.529Z,9.33
2018-08-20T01:48:31.345Z,7.13
2018-08-20T01:51:00.256Z,7.13
2018-08-20T01:53:27.960Z,9.40
2018-08-20T01:55:55.646Z,5.37
2018-08-20T01:58:23.344Z,6.43
2018-08-20T02:00:51.086Z,5.27
2018-08-20T02:03:18.907Z,5.53
2018-08-20T02:05:46.756Z,5.40
2018-08-20T02:08:14.531Z,5.70
2018-08-20T02:10:42.302Z,6.10
2018-08-20T02:13:10.464Z,5.93
2018-08-20T02:15:38.442Z,6.27
2018-08-20T02:18:08.505Z,5.77
2018-08-20T02:20:36.207Z,8.57
2018-08-20T02:23:04.584Z,5.77
2018-08-20T02:25:32.334Z,6.97
2018-08-20T02:28:00.026Z,5.57
2018-08-20T02:30:27.774Z,5.23
2018-08-20T02:32:55.467Z,4.80
2018-08-20T02:35:23.286Z,5.53
2018-08-20T02:37:51.029Z,7.33
2018-08-20T02:40:18.803Z,6.17
2018-08-20T02:42:46.990Z,5.93
2018-08-20T02:45:17.015Z,5.10
2018-08-20T02:47:45.174Z,5.43
2018-08-20T02:50:13.764Z,6.83
2018-08-20T02:52:42.342Z,7.17
2018-08-20T02:55:10.174Z,10.90
2018-08-20T02:57:38.819Z,7.20
2018-08-20T03:00:10.179Z,6.43
2018-08-20T03:02:37.966Z,7.47
2018-08-20T03:05:06.362Z,7.00
2018-08-20T03:07:34.256Z,7.77
2018-08-20T03:10:02.209Z,7.43
2018-08-20T03:12:30.161Z,8.40
2018-08-20T03:14:57.955Z,9.20
2018-08-20T03:17:25.853Z,9.23
2018-08-20T03:19:53.515Z,9.80
2018-08-20T03:22:21.356Z,6.63
2018-08-20T03:24:49.404Z,7.23
2018-08-20T03:27:17.089Z,6.23
2018-08-20T03:29:44.825Z,7.80
2018-08-20T03:32:12.573Z,7.37
2018-08-20T03:34:40.353Z,8.63
2018-08-20T03:37:08.073Z,8.40
2018-08-20T03:39:35.940Z,9.07
2018-08-20T03:42:03.684Z,7.87
2018-08-20T03:44:31.381Z,7.83
2018-08-20T03:46:59.084Z,7.47
2018-08-20T03:49:26.875Z,9.40
2018-08-20T03:51:54.621Z,7.03
2018-08-20T03:54:22.368Z,9.47
2018-08-20T03:56:50.399Z,7.57
2018-08-20T03:59:32.024Z,11.23
2018-08-20T04:02:01.866Z,10.33
2018-08-20T04:04:30.066Z,7.67
2018-08-20T04:06:59.734Z,9.17
2018-08-20T04:09:27.819Z,8.07
2018-08-20T04:11:55.626Z,8.50
2018-08-20T04:14:23.322Z,7.97
2018-08-20T04:16:51.363Z,9.13
2018-08-20T04:19:19.061Z,10.13
2018-08-20T04:21:47.146Z,7.57
2018-08-20T04:24:14.902Z,9.17
2018-08-20T04:26:42.852Z,7.97
2018-08-20T04:29:10.535Z,9.47
2018-08-20T04:31:38.311Z,8.87
2018-08-20T04:34:06.427Z,8.50
2018-08-20T04:36:34.691Z,8.20
2018-08-20T04:39:04.004Z,9.67
2018-08-20T04:41:31.703Z,9.43
2018-08-20T04:43:59.491Z,8.10
2018-08-20T04:46:27.500Z,8.50
2018-08-20T04:48:55.163Z,8.30
2018-08-20T04:51:22.956Z,7.90
2018-08-20T04:53:50.817Z,8.70
2018-08-20T04:56:18.510Z,7.73
2018-08-20T04:58:46.452Z,11.63
2018-08-20T05:01:14.155Z,15.00
2018-08-20T05:03:41.832Z,11.43
2018-08-20T05:06:09.589Z,13.73
2018-08-20T05:08:37.390Z,11.80
2018-08-20T05:11:05.288Z,12.43
2018-08-20T05:13:33.213Z,11.90
2018-08-20T05:16:01.046Z,11.03
2018-08-20T05:18:28.750Z,11.53
2018-08-20T05:20:56.466Z,10.30
2018-08-20T05:23:24.334Z,8.70
2018-08-20T05:25:52.178Z,9.60
2018-08-20T05:28:20.039Z,12.87
2018-08-20T05:30:47.778Z,8.33
2018-08-20T05:33:15.953Z,10.77
2018-08-20T05:35:43.691Z,8.60
2018-08-20T05:38:11.444Z,10.40
2018-08-20T05:40:39.490Z,8.60
2018-08-20T05:43:07.236Z,7.20
2018-08-20T05:45:45.087Z,8.37
2018-08-20T05:48:12.795Z,8.67
2018-08-20T05:50:40.567Z,9.83
2018-08-20T05:53:08.291Z,10.23
2018-08-20T05:55:36.126Z,11.13
2018-08-20T05:58:03.885Z,11.73
2018-08-20T06:00:31.764Z,10.73
2018-08-20T06:02:59.515Z,8.60
2018-08-20T06:05:27.379Z,10.50
2018-08-20T06:07:55.129Z,11.17
2018-08-20T06:10:22.841Z,10.30
2018-08-20T06:12:50.679Z,10.87
2018-08-20T06:15:20.028Z,12.83
2018-08-20T06:17:47.973Z,14.33
2018-08-20T06:20:16.767Z,13.70
2018-08-20T06:22:44.949Z,13.60
2018-08-20T06:25:19.362Z,11.87
2018-08-20T06:27:47.085Z,13.77
2018-08-20T06:30:17.895Z,12.27
2018-08-20T06:32:45.933Z,13.57
2018-08-20T06:35:13.696Z,10.87
2018-08-20T06:37:41.590Z,10.90
2018-08-20T06:40:14.517Z,9.50
2018-08-20T06:42:42.275Z,12.73
2018-08-20T06:45:15.084Z,9.20
2018-08-20T06:47:43.678Z,10.43
2018-08-20T06:50:11.653Z,9.83
2018-08-20T06:52:40.055Z,8.50
2018-08-20T06:55:07.738Z,7.50
2018-08-20T06:57:35.443Z,9.87
2018-08-20T07:00:05.016Z,8.37
2018-08-20T07:02:32.779Z,8.17
2018-08-20T07:05:00.533Z,6.70
2018-08-20T07:07:28.411Z,6.93
2018-08-20T07:12:53.382Z,8.43
2018-08-20T07:15:21.273Z,6.00
2018-08-20T07:17:49.163Z,7.83
2018-08-20T07:20:16.870Z,6.43
2018-08-20T07:22:44.630Z,7.93
2018-08-20T07:25:12.307Z,10.87
2018-08-20T07:27:39.989Z,6.42
2018-08-20T07:30:09.406Z,7.60
2018-08-20T07:32:37.135Z,6.55
2018-08-20T07:35:05.089Z,8.90
2018-08-20T07:37:32.794Z,8.60
2018-08-20T07:40:00.464Z,5.58
2018-08-20T07:42:28.330Z,6.50
2018-08-20T07:44:56.121Z,6.83
2018-08-20T07:47:23.819Z,4.83
2018-08-20T07:49:51.528Z,6.37
2018-08-20T07:52:19.219Z,8.08
2018-08-20T07:54:46.940Z,6.08
2018-08-20T07:57:14.659Z,4.55
2018-08-20T07:59:42.375Z,5.47
2018-08-20T08:02:10.120Z,5.47
2018-08-20T08:04:37.864Z,6.03
2018-08-20T08:07:05.547Z,5.92
2018-08-20T08:09:33.247Z,4.75
2018-08-20T08:12:00.931Z,7.55
2018-08-20T08:14:28.866Z,4.78
2018-08-20T08:16:56.591Z,5.35
2018-08-20T08:19:24.261Z,4.58
2018-08-20T08:21:52.052Z,4.97
2018-08-20T08:24:19.793Z,4.67
2018-08-20T08:26:47.482Z,5.05
2018-08-20T08:29:15.138Z,3.98
2018-08-20T08:31:42.819Z,5.05
2018-08-20T08:34:10.563Z,4.20
2018-08-20T08:36:38.279Z,4.75
2018-08-20T08:39:09.036Z,4.35
2018-08-20T08:41:36.841Z,4.60
2018-08-20T08:44:04.803Z,5.87
2018-08-20T08:46:32.600Z,5.53
2018-08-20T08:49:00.313Z,5.70
2018-08-20T08:51:28.088Z,6.10
2018-08-20T08:53:55.863Z,6.22
2018-08-20T08:56:23.619Z,6.28
2018-08-20T08:58:51.695Z,5.92
2018-08-20T09:01:19.415Z,4.20
2018-08-20T09:03:47.123Z,8.00
2018-08-20T09:06:14.868Z,4.65
2018-08-20T09:08:43.078Z,4.42
2018-08-20T09:11:10.815Z,4.65
2018-08-20T09:13:38.607Z,3.92
2018-08-20T09:16:06.539Z,3.92
2018-08-20T09:18:34.195Z,4.45
2018-08-20T09:21:01.920Z,3.80
2018-08-20T09:23:29.692Z,4.20
2018-08-20T09:25:57.588Z,4.62
2018-08-20T09:28:25.311Z,5.12
2018-08-20T09:30:53.151Z,6.30
2018-08-20T09:33:20.876Z,5.62
2018-08-20T09:35:48.636Z,4.65
2018-08-20T09:38:16.394Z,5.08
2018-08-20T09:40:44.032Z,7.60
2018-08-20T09:43:11.683Z,4.58
2018-08-20T09:45:39.363Z,4.60
2018-08-20T09:48:07.111Z,4.80
2018-08-20T09:50:34.802Z,4.00
2018-08-20T09:53:02.500Z,5.70
2018-08-20T09:55:30.207Z,4.10
2018-08-20T09:57:58.194Z,5.72
2018-08-20T10:00:31.575Z,5.47
2018-08-20T10:02:59.391Z,4.33
2018-08-20T10:05:27.555Z,4.33
2018-08-20T10:07:56.333Z,4.67
2018-08-20T10:10:24.159Z,10.15
2018-08-20T10:12:51.923Z,4.80
2018-08-20T10:15:19.838Z,13.60
2018-08-20T10:17:47.771Z,4.67
2018-08-20T10:20:15.487Z,5.08
2018-08-20T10:22:43.432Z,5.25
2018-08-20T10:25:11.237Z,8.83
2018-08-20T10:27:39.192Z,4.42
2018-08-20T10:30:09.110Z,4.35
2018-08-20T10:32:36.771Z,4.97
2018-08-20T10:35:05.094Z,4.70
2018-08-20T10:37:32.953Z,7.87
2018-08-20T10:40:00.934Z,4.45
2018-08-20T10:42:28.703Z,4.20
2018-08-20T10:45:02.074Z,4.78
2018-08-20T10:47:36.628Z,6.15
2018-08-20T10:50:04.782Z,5.42
2018-08-20T10:52:32.673Z,3.95
2018-08-20T10:55:00.340Z,4.00
2018-08-20T10:57:28.007Z,3.75
2018-08-20T10:59:55.643Z,5.30
2018-08-20T11:02:23.312Z,3.37
2018-08-20T11:04:54.528Z,4.80
2018-08-20T11:07:23.015Z,4.40
2018-08-20T11:11:15.261Z,5.85
2018-08-20T11:13:42.937Z,4.58
2018-08-20T11:16:11.596Z,4.12
2018-08-20T11:18:39.303Z,4.58
2018-08-20T11:21:07.090Z,4.03
2018-08-20T11:23:34.749Z,4.23
2018-08-20T11:26:02.483Z,4.10
2018-08-20T11:28:30.159Z,3.53
2018-08-20T11:31:01.532Z,4.17
2018-08-20T11:33:29.686Z,4.23
2018-08-20T11:35:57.337Z,4.23
2018-08-20T11:38:25.065Z,4.30
2018-08-20T11:40:52.686Z,4.20
2018-08-20T11:43:20.559Z,4.80
2018-08-20T11:45:48.235Z,5.83
2018-08-20T11:48:16.190Z,6.10
2018-08-20T11:50:43.836Z,4.27
2018-08-20T11:53:11.524Z,5.47
2018-08-20T11:55:39.166Z,3.80
2018-08-20T11:58:07.053Z,4.27
2018-08-20T12:03:33.831Z,4.90
2018-08-20T12:06:01.460Z,4.00
2018-08-20T12:08:29.098Z,4.93
2018-08-20T12:10:56.875Z,4.40
2018-08-20T12:13:24.582Z,4.83
2018-08-20T12:15:52.456Z,3.70
2018-08-20T12:18:20.132Z,3.77
2018-08-20T12:20:47.772Z,4.47
2018-08-20T12:23:15.521Z,3.60
2018-08-20T12:25:43.085Z,5.17
2018-08-20T12:28:10.912Z,3.83
2018-08-20T12:30:38.543Z,5.70
2018-08-20T12:33:06.492Z,6.13
2018-08-20T12:35:34.173Z,6.50
2018-08-20T12:38:02.007Z,7.83
2018-08-20T12:40:29.689Z,5.37
2018-08-20T12:42:57.487Z,6.13
2018-08-20T12:45:25.308Z,4.53
2018-08-20T12:47:53.168Z,5.20
2018-08-20T12:50:21.035Z,4.97
2018-08-20T12:52:48.685Z,5.27
2018-08-20T12:55:16.449Z,5.23
2018-08-20T12:57:44.133Z,7.60
2018-08-20T13:00:12.103Z,6.47
2018-08-20T13:02:39.925Z,7.33
2018-08-20T13:05:08.674Z,6.07
2018-08-20T13:07:36.450Z,5.53
2018-08-20T13:10:05.259Z,4.90
2018-08-20T13:12:32.968Z,8.37
2018-08-20T13:15:01.256Z,5.67
2018-08-20T13:17:28.927Z,5.00
2018-08-20T13:19:57.026Z,5.53
2018-08-20T13:22:24.836Z,5.93
2018-08-20T13:24:52.800Z,4.63
2018-08-20T13:27:20.579Z,6.13
2018-08-20T13:29:48.418Z,5.70
2018-08-20T13:32:16.320Z,5.23
2018-08-20T13:34:44.084Z,5.60
2018-08-20T13:37:11.927Z,7.10
2018-08-20T13:39:39.667Z,5.90
2018-08-20T13:42:07.479Z,6.30
2018-08-20T13:44:35.363Z,6.07
2018-08-20T13:47:03.072Z,4.40
2018-08-20T13:49:31.027Z,7.50
2018-08-20T13:51:58.735Z,7.20
2018-08-20T13:54:26.407Z,5.63
2018-08-20T13:56:54.103Z,6.97
2018-08-20T13:59:21.942Z,6.70
2018-08-20T14:01:49.640Z,5.33
2018-08-20T14:04:17.391Z,5.50
2018-08-20T14:06:45.056Z,5.90
2018-08-20T14:09:12.754Z,4.73
2018-08-20T14:11:40.590Z,4.50
2018-08-20T14:14:08.768Z,5.13
2018-08-20T14:16:37.006Z,4.43
2018-08-20T14:19:05.516Z,5.33
2018-08-20T14:21:33.219Z,5.50
2018-08-20T14:24:00.970Z,5.60
2018-08-20T14:26:28.661Z,7.00
2018-08-20T14:28:56.522Z,5.33
2018-08-20T14:31:24.412Z,5.50
2018-08-20T14:33:55.291Z,4.97
2018-08-20T14:36:24.561Z,6.17
2018-08-20T14:38:52.251Z,6.00
2018-08-20T14:41:20.310Z,4.60
2018-08-20T14:43:48.059Z,6.70
2018-08-20T14:46:20.350Z,5.17
2018-08-20T14:48:48.693Z,5.30
2018-08-20T14:51:16.523Z,6.03
2018-08-20T14:53:44.428Z,7.20
2018-08-20T14:56:12.087Z,9.47
2018-08-20T14:58:40.148Z,8.17
2018-08-20T15:01:08.187Z,11.93
2018-08-20T15:03:35.880Z,7.67
2018-08-20T15:06:03.862Z,9.03
2018-08-20T15:08:31.845Z,9.83
2018-08-20T15:10:59.864Z,10.50
2018-08-20T15:13:27.604Z,7.27
2018-08-20T15:15:55.447Z,8.27
2018-08-20T15:18:23.138Z,6.47
2018-08-20T15:20:50.824Z,5.63
2018-08-20T15:23:18.527Z,6.13
2018-08-20T15:25:46.292Z,5.40
2018-08-20T15:28:13.966Z,5.93
2018-08-20T15:30:41.595Z,6.93
2018-08-20T15:33:09.345Z,5.03
2018-08-20T15:35:37.055Z,6.40
2018-08-20T15:38:04.875Z,6.70
2018-08-20T15:40:32.673Z,7.50
2018-08-20T15:43:00.536Z,6.77
2018-08-20T15:45:28.200Z,5.60
2018-08-20T15:47:55.843Z,5.50
2018-08-20T15:50:23.524Z,7.40
2018-08-20T15:52:51.232Z,4.97
2018-08-20T15:55:18.855Z,11.57
2018-08-20T15:57:46.502Z,7.23
2018-08-20T16:00:14.767Z,5.83
2018-08-20T16:02:43.099Z,7.00
2018-08-20T16:05:10.918Z,5.57
2018-08-20T16:07:38.583Z,7.37
2018-08-20T16:10:08.772Z,6.87
2018-08-20T16:12:36.612Z,5.03
2018-08-20T16:15:04.856Z,5.00
2018-08-20T16:17:32.589Z,5.60
2018-08-20T16:20:00.337Z,4.83
2018-08-20T16:22:29.062Z,4.67
2018-08-20T16:24:57.128Z,5.80
2018-08-20T16:27:25.095Z,4.90
2018-08-20T16:29:52.754Z,4.63
2018-08-20T16:32:20.798Z,8.90
2018-08-20T16:34:48.517Z,5.50
2018-08-20T16:37:16.240Z,4.53
2018-08-20T16:39:43.989Z,4.77
2018-08-20T16:42:11.797Z,5.17
2018-08-20T16:44:39.595Z,16.50
2018-08-20T16:47:07.331Z,4.53
2018-08-20T16:49:34.975Z,28.07
2018-08-20T16:52:02.845Z,24.37
2018-08-20T16:54:30.588Z,5.53
2018-08-20T16:57:00.272Z,6.63
2018-08-20T16:59:27.919Z,4.63
2018-08-20T17:01:55.950Z,4.93
2018-08-20T17:04:38.946Z,5.73
2018-08-20T17:07:06.711Z,3.93
2018-08-20T17:09:34.379Z,4.60
2018-08-20T17:12:02.055Z,3.87
2018-08-20T17:14:29.689Z,4.60
2018-08-20T17:16:57.637Z,3.90
2018-08-20T17:19:25.694Z,4.43
2018-08-20T17:21:53.493Z,4.10
2018-08-20T17:24:29.068Z,7.57
2018-08-20T17:27:00.101Z,9.67
2018-08-20T17:29:27.770Z,3.87
2018-08-20T17:31:55.803Z,5.90
2018-08-20T17:34:23.668Z,5.63
2018-08-20T17:36:52.040Z,4.90
2018-08-20T17:39:19.930Z,3.77
2018-08-20T17:41:48.139Z,3.77
2018-08-20T17:44:17.855Z,4.27
2018-08-20T17:46:45.795Z,4.27
2018-08-20T17:49:15.505Z,3.87
2018-08-20T17:51:44.362Z,2.97
2018-08-20T17:54:12.183Z,6.23
2018-08-20T17:56:40.521Z,3.63
2018-08-20T17:59:10.715Z,3.80
2018-08-20T18:01:38.484Z,10.20
2018-08-20T18:04:06.452Z,4.00
2018-08-20T18:06:47.618Z,3.43
2018-08-20T18:09:15.324Z,3.20
2018-08-20T18:11:48.935Z,3.70
2018-08-20T18:14:17.880Z,6.20
2018-08-20T18:16:45.715Z,14.07
2018-08-20T18:19:14.028Z,8.40
2018-08-20T18:21:41.796Z,6.67
2018-08-20T18:24:15.069Z,8.60
2018-08-20T18:27:33.815Z,8.50
2018-08-20T18:30:02.532Z,13.90
2018-08-20T18:32:32.386Z,6.60
2018-08-20T18:35:00.178Z,6.80
2018-08-20T18:37:27.958Z,7.47
2018-08-20T18:39:59.267Z,5.63
2018-08-20T18:42:33.956Z,4.83
2018-08-20T18:45:01.667Z,2.93
2018-08-20T18:47:29.430Z,3.10
2018-08-20T18:49:58.203Z,2.80
2018-08-20T18:52:30.367Z,4.23
2018-08-20T18:54:58.927Z,3.17
2018-08-20T18:57:30.183Z,3.73
2018-08-20T19:00:00.466Z,3.03
2018-08-20T19:03:02.704Z,4.27
2018-08-20T19:05:43.118Z,3.80
2018-08-20T19:08:15.679Z,3.33
2018-08-20T19:10:43.899Z,4.07
2018-08-20T19:13:11.598Z,2.83
2018-08-20T19:15:42.619Z,3.20
2018-08-20T19:18:13.651Z,3.97
2018-08-20T19:20:42.327Z,3.57
2018-08-20T19:23:10.183Z,3.67
2018-08-20T19:25:37.938Z,6.77
2018-08-20T19:28:11.403Z,3.60
2018-08-20T19:30:40.509Z,2.70
2018-08-20T19:33:15.997Z,4.03
2018-08-20T19:35:44.406Z,4.10
2018-08-20T19:38:12.389Z,4.67
2018-08-20T19:40:40.144Z,3.40
2018-08-20T19:43:07.883Z,2.73
2018-08-20T19:45:41.654Z,3.50
2018-08-20T19:48:09.915Z,4.73
2018-08-20T19:50:37.956Z,4.97
2018-08-20T19:53:10.332Z,3.23
2018-08-20T19:55:38.071Z,3.47
2018-08-20T19:58:05.881Z,3.50
2018-08-20T20:00:33.524Z,4.53
2018-08-20T20:03:01.286Z,2.87
2018-08-20T20:05:29.174Z,3.93
2018-08-20T20:08:03.136Z,5.20
2018-08-20T20:10:31.312Z,2.63
2018-08-20T20:12:58.963Z,3.13
2018-08-20T20:15:26.628Z,3.50
2018-08-20T20:17:55.267Z,3.63
2018-08-20T20:20:23.191Z,4.70
2018-08-20T20:22:50.899Z,3.23
2018-08-20T20:25:18.895Z,5.77
2018-08-20T20:27:46.568Z,3.43
2018-08-20T20:30:14.287Z,5.03
2018-08-20T20:32:42.050Z,5.17
2018-08-20T20:35:10.416Z,6.80
2018-08-20T20:37:38.707Z,4.50
2018-08-20T20:40:07.124Z,3.90
2018-08-20T20:42:35.012Z,5.10
2018-08-20T20:45:02.828Z,3.50
2018-08-20T20:47:30.532Z,5.20
2018-08-20T20:49:58.388Z,4.43
2018-08-20T20:52:26.203Z,4.13
2018-08-20T20:54:53.918Z,4.17
2018-08-20T20:57:21.601Z,6.27
2018-08-20T20:59:49.510Z,7.67
2018-08-20T21:02:17.573Z,5.63
2018-08-20T21:04:45.364Z,4.17
2018-08-20T21:07:17.024Z,3.30
2018-08-20T21:09:48.216Z,4.47
2018-08-20T21:12:17.395Z,4.57
2018-08-20T21:14:45.478Z,4.90
2018-08-20T21:17:13.401Z,5.57
2018-08-20T21:19:41.173Z,7.83
2018-08-20T21:22:09.227Z,6.10
2018-08-20T21:24:38.202Z,6.80
2018-08-20T21:27:13.155Z,5.27
2018-08-20T21:29:41.430Z,3.93
2018-08-20T21:32:10.771Z,4.83
2018-08-20T21:34:41.188Z,7.57
2018-08-20T21:37:09.667Z,3.67
2018-08-20T21:39:39.293Z,5.93
2018-08-20T21:42:07.424Z,4.13
2018-08-20T21:44:35.386Z,4.87
2018-08-20T21:47:25.091Z,5.60
2018-08-20T21:49:52.738Z,4.63
2018-08-20T21:52:20.539Z,4.73
2018-08-20T21:54:48.570Z,5.67
2018-08-20T21:57:16.361Z,6.40
2018-08-20T22:00:17.556Z,5.33
2018-08-20T22:03:02.411Z,4.33
2018-08-20T22:05:30.107Z,6.73
2018-08-20T22:07:59.139Z,5.63
2018-08-20T22:10:28.505Z,7.83
2018-08-20T22:12:56.614Z,7.20
2018-08-20T22:15:24.685Z,7.67
2018-08-20T22:17:52.612Z,7.47
2018-08-20T22:20:20.519Z,6.60
2018-08-20T22:22:48.188Z,6.20
2018-08-20T22:25:16.570Z,5.67
2018-08-20T22:27:50.623Z,5.17
2018-08-20T22:30:18.361Z,5.90
2018-08-20T22:32:47.355Z,7.13
2018-08-20T22:35:23.635Z,8.47
2018-08-20T22:37:51.843Z,6.60
2018-08-20T22:40:20.950Z,5.40
2018-08-20T22:42:58.605Z,11.50
2018-08-20T22:45:27.505Z,5.47
2018-08-20T22:47:55.387Z,6.47
2018-08-20T22:50:23.359Z,9.00
2018-08-20T22:52:52.152Z,8.47
2018-08-20T22:55:21.755Z,5.93
2018-08-20T22:58:08.518Z,5.47
2018-08-20T23:00:36.446Z,6.10
2018-08-20T23:03:04.679Z,5.70
2018-08-20T23:05:33.025Z,7.07
2018-08-20T23:08:11.874Z,5.43
2018-08-20T23:10:41.591Z,6.33
2018-08-20T23:13:09.628Z,6.37
2018-08-20T23:15:37.463Z,5.47
2018-08-20T23:18:05.432Z,5.67
2018-08-20T23:20:33.293Z,6.40
2018-08-20T23:23:01.287Z,7.93
2018-08-20T23:25:29.318Z,5.50
2018-08-20T23:27:57.265Z,6.30
2018-08-20T23:30:25.239Z,5.57
2018-08-20T23:32:52.995Z,5.03
2018-08-20T23:35:21.011Z,5.07
2018-08-20T23:37:49.181Z,6.97
2018-08-20T23:40:17.141Z,6.80
2018-08-20T23:42:44.939Z,6.33
2018-08-20T23:45:12.665Z,6.83
2018-08-20T23:47:40.450Z,5.33
2018-08-20T23:50:08.406Z,4.80
2018-08-20T23:52:36.370Z,5.70
2018-08-20T23:55:04.484Z,9.00
2018-08-20T23:57:32.241Z,7.53
